createdAt,value
2018-08-10T00:01:23.205Z,5.47
2018-08-10T00:03:52.069Z,5.43
2018-08-10T00:06:20.677Z,5.23
2018-08-10T00:08:49.735Z,4.77
2018-08-10T00:11:18.497Z,4.87
2018-08-10T00:13:47.309Z,5.93
2018-08-10T00:16:16.076Z,8.97
2018-08-10T00:18:44.861Z,6.70
2018-08-10T00:21:13.869Z,7.10
2018-08-10T00:23:42.482Z,7.13
2018-08-10T00:26:11.234Z,7.40
2018-08-10T00:28:40.353Z,6.63
2018-08-10T00:31:09.041Z,8.83
2018-08-10T00:33:37.802Z,5.13
2018-08-10T00:36:06.435Z,6.37
2018-08-10T00:38:35.161Z,6.07
2018-08-10T00:41:04.012Z,6.67
2018-08-10T00:43:32.738Z,5.10
2018-08-10T00:46:01.400Z,5.03
2018-08-10T00:48:29.956Z,5.83
2018-08-10T00:50:58.675Z,4.60
2018-08-10T00:53:27.267Z,5.50
2018-08-10T00:55:56.390Z,4.90
2018-08-10T00:58:25.176Z,6.33
2018-08-10T01:00:53.767Z,5.90
2018-08-10T01:03:22.405Z,6.10
2018-08-10T01:05:50.937Z,6.33
2018-08-10T01:08:19.532Z,8.37
2018-08-10T01:10:48.176Z,7.60
2018-08-10T01:13:18.259Z,6.50
2018-08-10T01:15:46.870Z,7.67
2018-08-10T01:18:15.668Z,7.43
2018-08-10T01:20:44.222Z,6.43
2018-08-10T01:23:13.746Z,7.93
2018-08-10T01:25:42.524Z,7.27
2018-08-10T01:28:11.398Z,9.13
2018-08-10T01:30:39.926Z,6.73
2018-08-10T01:33:08.466Z,9.30
2018-08-10T01:35:37.266Z,8.07
2018-08-10T01:38:05.830Z,7.70
2018-08-10T01:40:34.799Z,9.87
2018-08-10T01:43:03.414Z,8.93
2018-08-10T01:45:32.040Z,6.40
2018-08-10T01:48:01.202Z,9.97
2018-08-10T01:50:30.381Z,10.27
2018-08-10T01:52:59.296Z,11.57
2018-08-10T01:55:27.928Z,12.83
2018-08-10T01:57:56.661Z,11.23
2018-08-10T02:00:25.329Z,9.47
2018-08-10T02:02:55.303Z,14.23
2018-08-10T02:05:23.926Z,13.50
2018-08-10T02:07:52.622Z,14.63
2018-08-10T02:10:21.287Z,10.37
2018-08-10T02:12:54.562Z,13.07
2018-08-10T02:15:23.999Z,11.07
2018-08-10T02:17:52.754Z,9.50
2018-08-10T02:20:22.789Z,18.27
2018-08-10T02:22:52.091Z,19.37
2018-08-10T02:25:22.023Z,15.37
2018-08-10T02:27:51.533Z,18.10
2018-08-10T02:30:21.112Z,18.53
2018-08-10T02:32:50.552Z,20.00
2018-08-10T02:35:19.161Z,16.77
2018-08-10T02:37:48.511Z,19.40
2018-08-10T02:40:19.547Z,19.27
2018-08-10T02:42:49.261Z,17.00
2018-08-10T02:45:18.514Z,20.10
2018-08-10T02:47:48.164Z,16.03
2018-08-10T02:50:16.763Z,20.67
2018-08-10T02:52:45.697Z,20.40
2018-08-10T02:55:14.811Z,17.87
2018-08-10T02:57:43.810Z,15.07
2018-08-10T03:00:15.269Z,17.70
2018-08-10T03:02:44.551Z,17.33
2018-08-10T03:05:13.538Z,10.80
2018-08-10T03:07:42.520Z,13.50
2018-08-10T03:10:12.511Z,13.97
2018-08-10T03:12:41.940Z,11.97
2018-08-10T03:15:13.857Z,11.27
2018-08-10T03:17:43.710Z,12.13
2018-08-10T03:20:13.086Z,14.63
2018-08-10T03:22:42.333Z,9.97
2018-08-10T03:25:12.653Z,17.97
2018-08-10T03:27:41.548Z,11.90
2018-08-10T03:30:11.766Z,14.13
2018-08-10T03:32:40.542Z,15.93
2018-08-10T03:35:09.377Z,12.67
2018-08-10T03:37:39.051Z,13.27
2018-08-10T03:40:11.933Z,12.50
2018-08-10T03:42:40.779Z,12.23
2018-08-10T03:45:09.697Z,10.93
2018-08-10T03:47:38.685Z,10.13
2018-08-10T03:50:09.069Z,10.30
2018-08-10T03:52:38.201Z,6.53
2018-08-10T03:55:07.521Z,7.10
2018-08-10T03:57:36.479Z,8.73
2018-08-10T04:00:07.135Z,6.30
2018-08-10T04:02:36.160Z,10.13
2018-08-10T04:05:04.912Z,5.97
2018-08-10T04:07:34.143Z,7.20
2018-08-10T04:10:02.723Z,5.73
2018-08-10T04:12:31.919Z,4.60
2018-08-10T04:15:00.721Z,5.83
2018-08-10T04:17:30.135Z,5.03
2018-08-10T04:19:59.612Z,4.03
2018-08-10T04:22:28.290Z,4.77
2018-08-10T04:24:57.283Z,5.23
2018-08-10T04:27:25.875Z,7.77
2018-08-10T04:29:55.246Z,5.67
2018-08-10T04:32:24.393Z,5.07
2018-08-10T04:34:53.841Z,5.63
2018-08-10T04:37:23.796Z,5.40
2018-08-10T04:39:52.400Z,5.13
2018-08-10T04:42:21.042Z,7.43
2018-08-10T04:44:49.990Z,6.47
2018-08-10T04:47:18.643Z,6.80
2018-08-10T04:49:47.230Z,4.60
2018-08-10T04:52:15.834Z,7.40
2018-08-10T04:54:44.708Z,4.20
2018-08-10T04:57:13.548Z,6.90
2018-08-10T04:59:42.346Z,7.13
2018-08-10T05:02:11.205Z,4.23
2018-08-10T05:04:40.358Z,5.67
2018-08-10T05:07:09.510Z,6.30
2018-08-10T05:09:38.154Z,8.20
2018-08-10T05:12:06.902Z,4.67
2018-08-10T05:14:35.844Z,4.20
2018-08-10T05:17:04.722Z,7.53
2018-08-10T05:19:34.402Z,5.37
2018-08-10T05:22:03.472Z,6.47
2018-08-10T05:24:32.718Z,6.73
2018-08-10T05:27:01.564Z,4.97
2018-08-10T05:29:30.136Z,4.37
2018-08-10T05:31:58.716Z,6.10
2018-08-10T05:34:27.628Z,5.07
2018-08-10T05:36:56.490Z,6.47
2018-08-10T05:39:25.158Z,5.13
2018-08-10T05:41:53.832Z,4.93
2018-08-10T05:44:22.517Z,6.30
2018-08-10T05:46:51.243Z,6.30
2018-08-10T05:49:19.951Z,9.30
2018-08-10T05:51:48.560Z,8.73
2018-08-10T05:55:04.553Z,10.47
2018-08-10T05:57:33.347Z,10.63
2018-08-10T06:00:02.286Z,7.47
2018-08-10T06:02:31.045Z,7.63
2018-08-10T06:04:59.643Z,11.17
2018-08-10T06:07:28.256Z,12.30
2018-08-10T06:09:57.093Z,8.17
2018-08-10T06:12:26.165Z,10.30
2018-08-10T06:14:55.218Z,8.83
2018-08-10T06:17:23.792Z,11.77
2018-08-10T06:19:52.594Z,14.20
2018-08-10T06:22:21.300Z,11.20
2018-08-10T06:24:49.991Z,13.27
2018-08-10T06:27:18.633Z,10.90
2018-08-10T06:29:48.173Z,9.33
2018-08-10T06:32:17.027Z,11.07
2018-08-10T06:34:45.817Z,13.50
2018-08-10T06:37:14.527Z,9.40
2018-08-10T06:39:43.975Z,5.77
2018-08-10T06:42:12.647Z,9.87
2018-08-10T06:44:41.478Z,9.13
2018-08-10T06:47:10.187Z,8.23
2018-08-10T06:49:39.448Z,10.80
2018-08-10T06:52:08.855Z,7.67
2018-08-10T06:54:37.610Z,5.17
2018-08-10T06:57:07.073Z,6.80
2018-08-10T06:59:35.903Z,10.90
2018-08-10T07:02:04.604Z,7.00
2018-08-10T07:04:33.597Z,8.80
2018-08-10T07:07:02.253Z,8.20
2018-08-10T07:09:31.096Z,7.63
2018-08-10T07:12:00.087Z,5.20
2018-08-10T07:14:28.692Z,5.37
2018-08-10T07:16:57.573Z,6.83
2018-08-10T07:19:26.377Z,3.63
2018-08-10T07:21:54.967Z,8.47
2018-08-10T07:24:23.940Z,6.67
2018-08-10T07:26:52.682Z,6.57
2018-08-10T07:29:22.148Z,5.03
2018-08-10T07:31:50.746Z,5.07
2018-08-10T07:34:19.822Z,4.83
2018-08-10T07:36:48.680Z,7.27
2018-08-10T07:39:17.551Z,6.67
2018-08-10T07:41:47.060Z,5.47
2018-08-10T07:44:15.645Z,5.23
2018-08-10T07:46:44.288Z,4.90
2018-08-10T07:49:13.287Z,4.90
2018-08-10T07:51:42.367Z,4.57
2018-08-10T07:54:11.970Z,4.87
2018-08-10T07:56:40.878Z,5.23
2018-08-10T07:59:10.024Z,3.67
2018-08-10T08:01:38.682Z,4.60
2018-08-10T08:04:08.584Z,2.90
2018-08-10T08:06:37.758Z,3.23
2018-08-10T08:09:08.968Z,3.00
2018-08-10T08:11:37.847Z,2.70
2018-08-10T08:14:06.974Z,3.47
2018-08-10T08:16:36.226Z,4.73
2018-08-10T08:19:04.923Z,6.27
2018-08-10T08:21:34.170Z,4.27
2018-08-10T08:24:03.205Z,2.93
2018-08-10T08:26:31.872Z,3.57
2018-08-10T08:29:00.709Z,3.80
2018-08-10T08:31:29.471Z,3.60
2018-08-10T08:34:05.846Z,4.13
2018-08-10T08:36:35.707Z,5.20
2018-08-10T08:40:17.302Z,5.10
2018-08-10T08:42:47.187Z,6.63
2018-08-10T08:46:19.671Z,4.77
2018-08-10T08:48:51.678Z,5.17
2018-08-10T08:51:23.114Z,5.10
2018-08-10T08:54:02.863Z,5.07
2018-08-10T08:56:42.324Z,4.03
2018-08-10T08:59:11.276Z,4.20
2018-08-10T09:01:40.390Z,4.40
2018-08-10T09:04:22.030Z,4.03
2018-08-10T09:06:51.215Z,3.93
2018-08-10T09:09:31.067Z,5.77
2018-08-10T09:11:59.651Z,4.03
2018-08-10T09:14:47.209Z,4.77
2018-08-10T09:17:16.956Z,4.20
2018-08-10T09:19:46.021Z,6.20
2018-08-10T09:22:15.147Z,5.43
2018-08-10T09:24:44.381Z,5.00
2018-08-10T09:27:13.254Z,6.53
2018-08-10T09:29:42.323Z,6.00
2018-08-10T09:32:10.997Z,3.57
2018-08-10T09:34:40.393Z,5.47
2018-08-10T09:37:10.520Z,3.97
2018-08-10T09:39:39.533Z,5.03
2018-08-10T09:42:09.496Z,4.67
2018-08-10T09:44:38.619Z,5.47
2018-08-10T09:47:08.079Z,5.37
2018-08-10T09:49:39.517Z,4.60
2018-08-10T09:52:08.393Z,3.77
2018-08-10T09:55:38.019Z,3.10
2018-08-10T09:58:11.471Z,3.03
2018-08-10T10:00:46.532Z,3.53
2018-08-10T10:03:20.720Z,4.13
2018-08-10T10:05:52.083Z,3.93
2018-08-10T10:08:21.509Z,3.07
2018-08-10T10:10:51.092Z,3.93
2018-08-10T10:13:19.960Z,5.13
2018-08-10T10:15:48.782Z,3.17
2018-08-10T10:18:18.621Z,2.93
2018-08-10T10:20:48.089Z,5.67
2018-08-10T10:23:17.059Z,3.87
2018-08-10T10:25:46.056Z,4.20
2018-08-10T10:28:14.642Z,4.70
2018-08-10T10:30:43.313Z,4.50
2018-08-10T10:33:12.095Z,5.00
2018-08-10T10:35:40.731Z,5.07
2018-08-10T10:38:09.411Z,3.67
2018-08-10T10:40:38.813Z,3.67
2018-08-10T10:43:07.703Z,8.30
2018-08-10T10:45:36.659Z,3.97
2018-08-10T10:48:05.841Z,4.43
2018-08-10T10:50:34.650Z,3.70
2018-08-10T10:53:03.315Z,5.57
2018-08-10T10:55:32.032Z,4.17
2018-08-10T10:58:00.691Z,3.73
2018-08-10T11:00:29.874Z,5.43
2018-08-10T11:03:01.221Z,6.10
2018-08-10T11:05:29.858Z,5.80
2018-08-10T11:07:58.573Z,7.20
2018-08-10T11:10:27.551Z,6.37
2018-08-10T11:12:56.181Z,4.87
2018-08-10T11:15:24.796Z,6.03
2018-08-10T11:17:53.797Z,6.27
2018-08-10T11:20:22.734Z,3.93
2018-08-10T11:22:51.377Z,4.80
2018-08-10T11:25:20.159Z,4.20
2018-08-10T11:27:48.991Z,4.13
2018-08-10T11:30:17.814Z,6.13
2018-08-10T11:32:47.889Z,5.40
2018-08-10T11:35:16.457Z,5.27
2018-08-10T11:37:45.353Z,6.00
2018-08-10T11:40:15.462Z,6.17
2018-08-10T11:42:44.527Z,5.27
2018-08-10T11:45:14.738Z,6.10
2018-08-10T11:47:43.437Z,3.70
2018-08-10T11:50:12.307Z,6.57
2018-08-10T11:52:41.050Z,5.23
2018-08-10T11:55:11.816Z,5.33
2018-08-10T11:57:40.685Z,5.00
2018-08-10T12:00:10.934Z,6.03
2018-08-10T12:02:39.675Z,5.20
2018-08-10T12:05:10.125Z,4.80
2018-08-10T12:07:39.470Z,5.67
2018-08-10T12:10:08.681Z,4.10
2018-08-10T12:12:37.653Z,6.23
2018-08-10T12:15:08.834Z,3.47
2018-08-10T12:17:37.836Z,3.53
2018-08-10T12:20:06.934Z,5.00
2018-08-10T12:22:36.124Z,4.53
2018-08-10T12:25:05.453Z,3.47
2018-08-10T12:27:35.082Z,3.63
2018-08-10T12:30:04.777Z,3.93
2018-08-10T12:32:33.557Z,3.73
2018-08-10T12:35:02.478Z,4.17
2018-08-10T12:37:31.120Z,4.53
2018-08-10T12:39:59.801Z,4.20
2018-08-10T12:42:28.411Z,3.97
2018-08-10T12:44:57.138Z,5.67
2018-08-10T12:47:26.680Z,2.50
2018-08-10T12:49:55.889Z,4.83
2018-08-10T12:52:24.673Z,4.20
2018-08-10T12:54:53.524Z,4.37
2018-08-10T12:57:22.613Z,2.97
2018-08-10T12:59:51.370Z,3.87
2018-08-10T13:02:20.295Z,5.43
2018-08-10T13:04:49.290Z,4.70
2018-08-10T13:07:18.266Z,4.03
2018-08-10T13:09:47.167Z,4.13
2018-08-10T13:12:16.955Z,4.03
2018-08-10T13:14:45.678Z,4.10
2018-08-10T13:17:14.481Z,5.00
2018-08-10T13:19:43.167Z,5.03
2018-08-10T13:22:12.268Z,6.37
2018-08-10T13:24:41.216Z,4.40
2018-08-10T13:27:10.061Z,3.80
2018-08-10T13:29:38.742Z,5.10
2018-08-10T13:32:07.849Z,5.20
2018-08-10T13:34:36.575Z,3.97
2018-08-10T13:37:05.423Z,3.97
2018-08-10T13:39:34.257Z,4.30
2018-08-10T13:42:03.184Z,4.53
2018-08-10T13:44:31.946Z,3.63
2018-08-10T13:47:01.082Z,5.80
2018-08-10T13:49:29.933Z,3.20
2018-08-10T13:51:58.911Z,4.50
2018-08-10T13:54:27.536Z,4.13
2018-08-10T13:56:56.220Z,6.77
2018-08-10T13:59:25.699Z,5.47
2018-08-10T14:01:54.888Z,4.93
2018-08-10T14:04:23.498Z,2.63
2018-08-10T14:06:52.558Z,4.10
2018-08-10T14:09:21.325Z,4.30
2018-08-10T14:11:50.569Z,2.57
2018-08-10T14:14:19.230Z,3.20
2018-08-10T14:16:48.513Z,5.63
2018-08-10T14:19:17.487Z,4.63
2018-08-10T14:21:46.117Z,3.60
2018-08-10T14:24:14.785Z,2.83
2018-08-10T14:26:43.588Z,4.47
2018-08-10T14:29:12.507Z,4.33
2018-08-10T14:31:41.406Z,3.13
2018-08-10T14:34:10.616Z,3.87
2018-08-10T14:36:39.618Z,3.10
2018-08-10T14:39:10.552Z,2.67
2018-08-10T14:41:39.590Z,3.70
2018-08-10T14:44:08.652Z,3.40
2018-08-10T14:46:37.633Z,4.13
2018-08-10T14:49:07.560Z,3.77
2018-08-10T14:51:36.553Z,4.60
2018-08-10T14:54:06.134Z,5.60
2018-08-10T14:56:35.250Z,3.13
2018-08-10T14:59:03.991Z,4.90
2018-08-10T15:01:33.513Z,4.17
2018-08-10T15:04:02.280Z,3.93
2018-08-10T15:06:31.245Z,2.97
2018-08-10T15:09:00.294Z,3.50
2018-08-10T15:11:29.007Z,2.97
2018-08-10T15:13:57.695Z,5.47
2018-08-10T15:16:27.044Z,4.83
2018-08-10T15:18:56.269Z,4.33
2018-08-10T15:21:24.896Z,4.40
2018-08-10T15:23:53.853Z,3.17
2018-08-10T15:26:22.727Z,4.10
2018-08-10T15:28:51.705Z,5.23
2018-08-10T15:31:21.369Z,3.63
2018-08-10T15:33:50.673Z,4.17
2018-08-10T15:36:19.313Z,4.70
2018-08-10T15:38:48.228Z,4.90
2018-08-10T15:41:17.281Z,4.77
2018-08-10T15:43:46.074Z,4.23
2018-08-10T15:46:15.595Z,3.77
2018-08-10T15:48:44.522Z,3.00
2018-08-10T15:51:13.868Z,3.80
2018-08-10T15:53:42.604Z,3.20
2018-08-10T15:56:11.519Z,3.43
2018-08-10T15:58:40.463Z,3.10
2018-08-10T16:01:09.448Z,4.07
2018-08-10T16:03:38.074Z,2.87
2018-08-10T16:06:07.098Z,4.13
2018-08-10T16:08:36.009Z,4.93
2018-08-10T16:11:04.597Z,4.50
2018-08-10T16:13:33.288Z,7.00
2018-08-10T16:16:02.038Z,3.60
2018-08-10T16:18:30.774Z,6.20
2018-08-10T16:20:59.973Z,3.90
2018-08-10T16:23:28.777Z,5.33
2018-08-10T16:25:57.517Z,6.97
2018-08-10T16:28:26.964Z,7.60
2018-08-10T16:30:55.624Z,4.30
2018-08-10T16:33:24.293Z,6.97
2018-08-10T16:35:52.998Z,5.47
2018-08-10T16:38:21.611Z,5.73
2018-08-10T16:40:50.254Z,5.40
2018-08-10T16:43:19.136Z,6.67
2018-08-10T16:45:48.357Z,6.20
2018-08-10T16:48:17.200Z,7.50
2018-08-10T16:50:46.842Z,6.90
2018-08-10T16:53:16.150Z,6.33
2018-08-10T16:55:45.328Z,7.03
2018-08-10T16:58:13.916Z,6.00
2018-08-10T17:00:42.709Z,6.93
2018-08-10T17:03:11.537Z,6.27
2018-08-10T17:05:40.603Z,5.40
2018-08-10T17:08:09.535Z,7.00
2018-08-10T17:10:38.582Z,7.63
2018-08-10T17:13:07.312Z,11.23
2018-08-10T17:15:35.898Z,7.60
2018-08-10T17:18:04.588Z,5.37
2018-08-10T17:20:33.187Z,5.13
2018-08-10T17:23:01.951Z,5.17
2018-08-10T17:25:30.958Z,4.37
2018-08-10T17:27:59.760Z,6.67
2018-08-10T17:30:28.890Z,4.77
2018-08-10T17:32:58.415Z,6.73
2018-08-10T17:35:27.471Z,6.03
2018-08-10T17:37:56.391Z,5.23
2018-08-10T17:40:25.062Z,6.27
2018-08-10T17:42:54.023Z,8.63
2018-08-10T17:45:22.675Z,6.23
2018-08-10T17:47:51.607Z,6.60
2018-08-10T17:50:21.491Z,7.07
2018-08-10T17:52:51.727Z,5.00
2018-08-10T17:55:20.690Z,4.53
2018-08-10T17:57:49.690Z,6.07
2018-08-10T18:00:20.578Z,6.43
2018-08-10T18:02:49.947Z,5.33
2018-08-10T18:05:19.120Z,5.93
2018-08-10T18:07:48.098Z,7.07
2018-08-10T18:10:17.981Z,4.87
2018-08-10T18:12:46.996Z,5.87
2018-08-10T18:15:17.858Z,7.13
2018-08-10T18:17:47.141Z,5.77
2018-08-10T18:20:20.022Z,7.77
2018-08-10T18:22:50.044Z,6.53
2018-08-10T18:25:20.016Z,7.20
2018-08-10T18:27:48.949Z,8.23
2018-08-10T18:30:20.591Z,10.47
2018-08-10T18:32:49.689Z,7.10
2018-08-10T18:35:18.470Z,6.73
2018-08-10T18:37:48.036Z,4.97
2018-08-10T18:40:17.234Z,8.10
2018-08-10T18:42:47.065Z,5.60
2018-08-10T18:45:17.461Z,4.87
2018-08-10T18:47:46.414Z,6.53
2018-08-10T18:50:16.474Z,5.03
2018-08-10T18:52:45.213Z,4.90
2018-08-10T18:55:22.432Z,5.57
2018-08-10T18:57:51.629Z,5.73
2018-08-10T19:00:22.234Z,3.90
2018-08-10T19:02:50.828Z,3.67
2018-08-10T19:05:19.600Z,5.77
2018-08-10T19:07:48.680Z,7.30
2018-08-10T19:10:22.116Z,3.43
2018-08-10T19:12:51.044Z,3.53
2018-08-10T19:15:19.950Z,4.23
2018-08-10T19:17:48.711Z,8.03
2018-08-10T19:20:17.686Z,6.40
2018-08-10T19:22:47.013Z,6.60
2018-08-10T19:25:16.384Z,7.20
2018-08-10T19:27:45.124Z,8.70
2018-08-10T19:30:18.489Z,9.70
2018-08-10T19:32:47.776Z,7.83
2018-08-10T19:35:17.101Z,7.60
2018-08-10T19:37:45.957Z,9.10
2018-08-10T19:40:16.011Z,8.63
2018-08-10T19:42:44.809Z,9.27
2018-08-10T19:45:14.560Z,7.77
2018-08-10T19:47:43.708Z,4.63
2018-08-10T19:50:13.890Z,5.77
2018-08-10T19:52:42.642Z,3.80
2018-08-10T19:55:14.906Z,4.63
2018-08-10T19:57:43.593Z,6.77
2018-08-10T20:00:14.606Z,4.00
2018-08-10T20:02:43.460Z,4.00
2018-08-10T20:05:12.097Z,2.83
2018-08-10T20:07:40.838Z,4.83
2018-08-10T20:10:11.020Z,1.73
2018-08-10T20:12:39.729Z,4.10
2018-08-10T20:15:11.396Z,2.67
2018-08-10T20:17:40.484Z,1.37
2018-08-10T20:20:09.956Z,2.20
2018-08-10T20:22:38.593Z,3.20
2018-08-10T20:25:07.790Z,1.83
2018-08-10T20:27:36.745Z,2.10
2018-08-10T20:30:07.871Z,3.53
2018-08-10T20:32:36.533Z,2.60
2018-08-10T20:35:06.335Z,3.50
2018-08-10T20:37:34.941Z,3.07
2018-08-10T20:40:03.615Z,2.07
2018-08-10T20:42:32.239Z,1.40
2018-08-10T20:45:00.861Z,1.90
2018-08-10T20:47:29.512Z,1.93
2018-08-10T20:49:58.160Z,2.10
2018-08-10T20:52:26.794Z,2.27
2018-08-10T20:54:55.556Z,2.43
2018-08-10T20:57:24.121Z,3.63
2018-08-10T20:59:52.681Z,4.00
2018-08-10T21:02:21.272Z,1.63
2018-08-10T21:04:49.814Z,1.87
2018-08-10T21:07:18.416Z,3.30
2018-08-10T21:09:47.057Z,1.70
2018-08-10T21:12:15.650Z,2.87
2018-08-10T21:14:44.232Z,2.47
2018-08-10T21:17:13.300Z,1.90
2018-08-10T21:19:42.032Z,2.13
2018-08-10T21:22:10.622Z,4.67
2018-08-10T21:24:39.314Z,5.70
2018-08-10T21:27:08.129Z,1.90
2018-08-10T21:29:37.136Z,2.80
2018-08-10T21:32:05.804Z,2.60
2018-08-10T21:34:34.404Z,2.33
2018-08-10T21:37:03.010Z,3.73
2018-08-10T21:39:31.768Z,2.63
2018-08-10T21:42:00.368Z,1.97
2018-08-10T21:44:29.208Z,2.67
2018-08-10T21:46:57.825Z,1.90
2018-08-10T21:49:26.551Z,3.90
2018-08-10T21:51:55.096Z,1.73
2018-08-10T21:54:23.973Z,2.20
2018-08-10T21:56:52.894Z,2.60
2018-08-10T21:59:21.496Z,2.53
2018-08-10T22:01:50.326Z,3.10
2018-08-10T22:04:19.071Z,2.83
2018-08-10T22:06:47.989Z,1.50
2018-08-10T22:09:16.609Z,2.33
2018-08-10T22:11:45.445Z,2.07
2018-08-10T22:14:20.096Z,1.80
2018-08-10T22:16:54.022Z,2.03
2018-08-10T22:19:22.973Z,2.57
2018-08-10T22:21:51.711Z,2.77
2018-08-10T22:24:20.579Z,2.93
2018-08-10T22:26:49.248Z,1.87
2018-08-10T22:29:17.990Z,2.43
2018-08-10T22:31:46.596Z,2.30
2018-08-10T22:34:15.167Z,2.07
2018-08-10T22:36:43.785Z,1.73
2018-08-10T22:39:13.099Z,1.83
2018-08-10T22:41:41.659Z,2.53
2018-08-10T22:44:10.455Z,2.87
2018-08-10T22:46:39.051Z,2.37
2018-08-10T22:49:07.756Z,3.73
2018-08-10T22:51:36.472Z,2.23
2018-08-10T22:54:05.211Z,3.27
2018-08-10T22:56:33.816Z,3.10
2018-08-10T22:59:02.465Z,4.27
2018-08-10T23:01:31.193Z,3.53
2018-08-10T23:03:59.748Z,3.40
2018-08-10T23:06:28.626Z,3.63
2018-08-10T23:08:57.546Z,5.77
2018-08-10T23:11:26.847Z,3.30
2018-08-10T23:13:56.322Z,2.53
2018-08-10T23:16:24.892Z,2.70
2018-08-10T23:18:53.898Z,2.13
2018-08-10T23:21:22.579Z,2.93
2018-08-10T23:23:51.429Z,3.77
2018-08-10T23:26:20.733Z,3.73
2018-08-10T23:28:49.278Z,2.37
2018-08-10T23:31:17.902Z,4.50
2018-08-10T23:33:46.467Z,3.57
2018-08-10T23:36:15.061Z,3.30
2018-08-10T23:38:43.631Z,5.97
2018-08-10T23:41:12.366Z,7.33
2018-08-10T23:43:41.272Z,5.13
2018-08-10T23:46:10.171Z,5.03
2018-08-10T23:48:39.107Z,7.13
2018-08-10T23:51:08.258Z,6.17
2018-08-10T23:53:36.863Z,6.80
2018-08-10T23:56:05.583Z,5.23
2018-08-10T23:58:34.191Z,5.73
